createdAt,value
2023-04-06T00:02:06.788Z,13.77
2023-04-06T00:03:39.178Z,12.88
2023-04-06T00:05:11.646Z,13.38
2023-04-06T00:06:43.724Z,12.77
2023-04-06T00:08:16.057Z,13.23
2023-04-06T00:09:48.191Z,12.10
2023-04-06T00:11:20.340Z,12.13
2023-04-06T00:12:52.487Z,12.32
2023-04-06T00:14:24.841Z,11.57
2023-04-06T00:15:57.001Z,12.65
2023-04-06T00:17:29.565Z,13.82
2023-04-06T00:19:01.620Z,12.18
2023-04-06T00:20:33.622Z,11.88
2023-04-06T00:22:05.842Z,11.73
2023-04-06T00:23:38.007Z,12.02
2023-04-06T00:25:11.451Z,13.60
2023-04-06T00:26:43.481Z,12.90
2023-04-06T00:28:16.005Z,13.30
2023-04-06T00:32:54.209Z,11.18
2023-04-06T00:34:26.493Z,12.30
2023-04-06T00:35:59.305Z,15.05
2023-04-06T00:37:31.633Z,10.75
2023-04-06T00:39:03.906Z,11.30
2023-04-06T00:40:36.729Z,10.52
2023-04-06T00:42:16.702Z,12.98
2023-04-06T00:43:48.896Z,11.57
2023-04-06T00:45:21.045Z,11.85
2023-04-06T00:46:53.210Z,11.57
2023-04-06T00:48:25.396Z,11.90
2023-04-06T00:49:58.286Z,12.02
2023-04-06T00:51:30.436Z,12.00
2023-04-06T00:53:02.796Z,11.80
2023-04-06T00:54:34.888Z,12.70
2023-04-06T00:56:07.213Z,13.13
2023-04-06T00:57:39.266Z,12.27
2023-04-06T00:59:14.558Z,13.05
2023-04-06T01:00:47.000Z,12.05
2023-04-06T01:02:19.153Z,13.15
2023-04-06T01:03:51.732Z,12.15
2023-04-06T01:05:23.856Z,13.88
2023-04-06T01:06:55.964Z,13.13
2023-04-06T01:08:28.609Z,12.68
2023-04-06T01:10:00.950Z,12.13
2023-04-06T01:11:33.131Z,12.23
2023-04-06T01:13:05.428Z,14.25
2023-04-06T01:14:37.655Z,12.27
2023-04-06T01:16:11.194Z,13.35
2023-04-06T01:19:15.651Z,13.35
2023-04-06T01:20:47.839Z,12.88
2023-04-06T01:22:20.165Z,12.85
2023-04-06T01:23:52.279Z,14.35
2023-04-06T01:25:24.412Z,11.55
2023-04-06T01:26:57.883Z,13.68
2023-04-06T01:28:29.958Z,12.52
2023-04-06T01:30:02.066Z,11.23
2023-04-06T01:31:34.218Z,11.98
2023-04-06T01:33:06.512Z,11.30
2023-04-06T01:34:38.701Z,11.93
2023-04-06T01:36:10.877Z,11.95
2023-04-06T01:37:42.911Z,12.48
2023-04-06T01:39:15.090Z,11.80
2023-04-06T01:40:47.428Z,11.32
2023-04-06T01:42:19.723Z,13.63
2023-04-06T01:43:55.810Z,12.70
2023-04-06T01:45:27.897Z,11.70
2023-04-06T01:47:00.304Z,13.32
2023-04-06T01:48:33.225Z,12.50
2023-04-06T01:50:07.644Z,13.95
2023-04-06T01:51:39.734Z,13.48
2023-04-06T01:53:11.861Z,14.07
2023-04-06T01:54:43.980Z,12.75
2023-04-06T01:56:16.141Z,12.10
2023-04-06T01:57:48.325Z,13.95
2023-04-06T01:59:20.890Z,13.15
2023-04-06T02:00:52.984Z,11.55
2023-04-06T02:02:25.176Z,13.38
2023-04-06T02:03:57.327Z,13.90
2023-04-06T02:05:31.481Z,13.52
2023-04-06T02:07:03.540Z,11.80
2023-04-06T02:08:35.777Z,14.10
2023-04-06T02:10:13.916Z,13.00
2023-04-06T02:11:46.065Z,12.20
2023-04-06T02:13:18.336Z,11.80
2023-04-06T02:14:50.466Z,13.82
2023-04-06T02:16:22.822Z,12.48
2023-04-06T02:17:55.171Z,13.60
2023-04-06T02:19:27.542Z,13.82
2023-04-06T02:20:59.592Z,14.00
2023-04-06T02:22:31.848Z,13.52
2023-04-06T02:24:04.229Z,13.23
2023-04-06T02:25:36.350Z,13.25
2023-04-06T02:27:08.510Z,12.73
2023-04-06T02:28:41.378Z,13.45
2023-04-06T02:30:13.668Z,12.23
2023-04-06T02:31:45.973Z,12.45
2023-04-06T02:33:18.085Z,12.38
2023-04-06T02:34:50.213Z,12.38
2023-04-06T02:36:22.370Z,13.25
2023-04-06T02:37:54.579Z,11.93
2023-04-06T02:39:26.677Z,12.52
2023-04-06T02:40:58.730Z,12.57
2023-04-06T02:42:30.944Z,12.27
2023-04-06T02:44:03.146Z,11.73
2023-04-06T02:45:35.805Z,14.80
2023-04-06T02:47:08.011Z,12.47
2023-04-06T02:48:40.141Z,11.48
2023-04-06T02:50:12.227Z,16.20
2023-04-06T02:51:44.401Z,14.05
2023-04-06T02:53:16.472Z,12.85
2023-04-06T02:54:48.484Z,12.48
2023-04-06T02:56:22.302Z,13.70
2023-04-06T02:57:57.411Z,12.90
2023-04-06T02:59:29.539Z,12.93
2023-04-06T03:01:02.059Z,11.65
2023-04-06T03:02:34.393Z,13.43
2023-04-06T03:04:06.556Z,13.02
2023-04-06T03:05:38.711Z,13.02
2023-04-06T03:07:11.003Z,12.75
2023-04-06T03:08:43.213Z,13.80
2023-04-06T03:10:15.306Z,15.63
2023-04-06T03:11:47.409Z,12.45
2023-04-06T03:13:19.607Z,15.02
2023-04-06T03:14:51.751Z,13.07
2023-04-06T03:16:23.894Z,13.07
2023-04-06T03:17:58.176Z,14.07
2023-04-06T03:19:31.986Z,12.75
2023-04-06T03:21:04.133Z,12.48
2023-04-06T03:22:36.218Z,11.48
2023-04-06T03:24:08.940Z,12.57
2023-04-06T03:25:41.331Z,13.73
2023-04-06T03:28:52.649Z,14.32
2023-04-06T03:30:24.911Z,14.88
2023-04-06T03:31:57.511Z,12.50
2023-04-06T03:33:29.754Z,14.57
2023-04-06T03:35:02.057Z,13.77
2023-04-06T03:36:36.196Z,15.95
2023-04-06T03:38:08.309Z,13.20
2023-04-06T03:39:40.453Z,13.00
2023-04-06T03:41:12.589Z,14.48
2023-04-06T03:42:44.781Z,13.63
2023-04-06T03:44:16.889Z,13.02
2023-04-06T03:45:49.110Z,14.38
2023-04-06T03:47:21.766Z,14.93
2023-04-06T03:48:53.923Z,15.70
2023-04-06T03:50:26.730Z,24.58
2023-04-06T03:51:58.928Z,21.00
2023-04-06T03:53:31.162Z,21.63
2023-04-06T03:55:03.525Z,17.85
2023-04-06T03:56:35.952Z,16.67
2023-04-06T03:58:08.111Z,15.18
2023-04-06T03:59:40.389Z,15.20
2023-04-06T04:01:12.877Z,12.98
2023-04-06T04:02:45.131Z,13.25
2023-04-06T04:04:17.454Z,14.70
2023-04-06T04:05:49.578Z,16.02
2023-04-06T04:07:21.689Z,14.88
2023-04-06T04:08:53.964Z,13.85
2023-04-06T04:10:26.079Z,14.00
2023-04-06T04:11:58.218Z,14.48
2023-04-06T04:13:30.682Z,15.98
2023-04-06T04:15:02.803Z,14.50
2023-04-06T04:16:35.113Z,14.93
2023-04-06T04:18:07.266Z,15.07
2023-04-06T04:19:39.505Z,14.63
2023-04-06T04:21:11.784Z,19.27
2023-04-06T04:22:44.168Z,15.77
2023-04-06T04:24:16.538Z,16.92
2023-04-06T04:25:48.616Z,16.63
2023-04-06T04:27:22.043Z,16.90
2023-04-06T04:28:54.209Z,13.90
2023-04-06T04:30:26.479Z,15.02
2023-04-06T04:31:58.687Z,16.65
2023-04-06T04:33:31.044Z,13.30
2023-04-06T04:35:03.384Z,15.45
2023-04-06T04:36:35.685Z,20.02
2023-04-06T04:38:07.785Z,16.58
2023-04-06T04:39:39.946Z,15.90
2023-04-06T04:41:12.153Z,16.13
2023-04-06T04:42:44.262Z,14.40
2023-04-06T04:44:16.430Z,14.68
2023-04-06T04:45:48.606Z,15.60
2023-04-06T04:47:20.950Z,18.40
2023-04-06T04:48:53.126Z,14.32
2023-04-06T04:50:25.216Z,14.93
2023-04-06T04:51:57.436Z,15.15
2023-04-06T04:53:29.547Z,16.77
2023-04-06T04:55:01.956Z,14.40
2023-04-06T04:56:34.114Z,16.73
2023-04-06T04:58:06.348Z,16.50
2023-04-06T04:59:38.598Z,15.05
2023-04-06T05:01:11.073Z,17.58
2023-04-06T05:02:43.452Z,17.15
2023-04-06T05:04:15.580Z,17.90
2023-04-06T05:05:47.735Z,17.70
2023-04-06T05:07:21.722Z,22.90
2023-04-06T05:08:53.889Z,22.30
2023-04-06T05:10:26.160Z,24.27
2023-04-06T05:11:58.725Z,24.60
2023-04-06T05:13:32.163Z,23.53
2023-04-06T05:15:04.637Z,19.20
2023-04-06T05:16:37.162Z,18.35
2023-04-06T05:18:09.817Z,30.27
2023-04-06T05:19:42.106Z,23.45
2023-04-06T05:21:14.593Z,19.35
2023-04-06T05:22:46.736Z,14.95
2023-04-06T05:24:18.875Z,12.30
2023-04-06T05:25:51.295Z,17.80
2023-04-06T05:27:23.474Z,15.80
2023-04-06T05:28:56.545Z,17.65
2023-04-06T05:30:28.748Z,15.52
2023-04-06T05:32:01.314Z,15.07
2023-04-06T05:33:33.923Z,14.90
2023-04-06T05:35:06.651Z,14.70
2023-04-06T05:36:38.802Z,13.80
2023-04-06T05:38:13.625Z,14.70
2023-04-06T05:39:45.845Z,13.88
2023-04-06T05:41:18.024Z,15.05
2023-04-06T05:42:50.918Z,17.95
2023-04-06T05:44:23.500Z,27.83
2023-04-06T05:45:55.637Z,19.65
2023-04-06T05:47:27.941Z,13.77
2023-04-06T05:49:00.156Z,11.68
2023-04-06T05:50:32.326Z,11.50
2023-04-06T05:52:05.605Z,11.50
2023-04-06T05:53:37.900Z,11.15
2023-04-06T05:55:10.876Z,10.57
2023-04-06T05:56:45.975Z,10.60
2023-04-06T05:58:18.697Z,12.05
2023-04-06T06:01:23.659Z,10.63
2023-04-06T06:02:55.940Z,10.70
2023-04-06T06:04:28.089Z,10.05
2023-04-06T06:06:05.467Z,11.10
2023-04-06T06:07:38.294Z,12.85
2023-04-06T06:09:10.565Z,12.57
2023-04-06T06:10:43.713Z,12.35
2023-04-06T06:12:15.908Z,13.60
2023-04-06T06:13:48.259Z,11.57
2023-04-06T06:15:20.462Z,11.73
2023-04-06T06:16:52.674Z,12.05
2023-04-06T06:18:24.998Z,12.32
2023-04-06T06:19:57.170Z,11.10
2023-04-06T06:21:29.295Z,12.10
2023-04-06T06:23:01.463Z,12.35
2023-04-06T06:24:33.779Z,11.85
2023-04-06T06:26:06.155Z,12.80
2023-04-06T06:27:38.540Z,10.38
2023-04-06T06:29:11.012Z,11.23
2023-04-06T06:30:43.120Z,12.63
2023-04-06T06:32:16.081Z,14.80
2023-04-06T06:33:51.584Z,13.57
2023-04-06T06:35:23.918Z,10.80
2023-04-06T06:36:57.124Z,11.50
2023-04-06T06:38:29.350Z,13.05
2023-04-06T06:40:01.525Z,12.93
2023-04-06T06:41:33.804Z,13.20
2023-04-06T06:43:06.000Z,13.02
2023-04-06T06:44:38.187Z,15.85
2023-04-06T06:46:10.377Z,14.02
2023-04-06T06:47:42.697Z,13.48
2023-04-06T06:49:15.692Z,13.32
2023-04-06T06:50:49.752Z,11.60
2023-04-06T06:52:23.139Z,11.85
2023-04-06T06:53:55.348Z,9.65
2023-04-06T06:55:28.189Z,12.52
2023-04-06T06:57:01.714Z,13.57
2023-04-06T07:00:12.354Z,15.00
2023-04-06T07:01:45.186Z,13.48
2023-04-06T07:03:17.331Z,12.45
2023-04-06T07:04:51.145Z,10.95
2023-04-06T07:06:23.743Z,11.00
2023-04-06T07:07:56.751Z,9.27
2023-04-06T07:09:29.332Z,10.55
2023-04-06T07:11:01.846Z,12.70
2023-04-06T07:12:35.919Z,12.20
2023-04-06T07:14:08.561Z,10.10
2023-04-06T07:15:40.960Z,13.15
2023-04-06T07:17:13.106Z,11.15
2023-04-06T07:18:45.219Z,12.82
2023-04-06T07:20:17.382Z,11.65
2023-04-06T07:21:51.017Z,12.48
2023-04-06T07:23:23.087Z,12.63
2023-04-06T07:24:56.260Z,12.00
2023-04-06T07:26:28.463Z,13.48
2023-04-06T07:28:00.653Z,12.85
2023-04-06T07:29:33.054Z,12.90
2023-04-06T07:31:05.173Z,12.40
2023-04-06T07:32:37.484Z,13.57
2023-04-06T07:34:09.883Z,12.55
2023-04-06T07:35:42.326Z,10.07
2023-04-06T07:37:14.712Z,11.57
2023-04-06T07:38:47.581Z,12.67
2023-04-06T07:40:20.972Z,11.30
2023-04-06T07:41:53.120Z,11.52
2023-04-06T07:43:25.641Z,9.25
2023-04-06T07:44:57.843Z,11.23
2023-04-06T07:46:30.413Z,10.00
2023-04-06T07:48:02.667Z,9.77
2023-04-06T07:49:34.955Z,10.85
2023-04-06T07:51:07.953Z,10.73
2023-04-06T07:52:40.518Z,11.90
2023-04-06T07:54:12.627Z,11.13
2023-04-06T07:55:44.723Z,12.35
2023-04-06T07:57:17.031Z,10.50
2023-04-06T07:58:51.073Z,12.15
2023-04-06T08:00:25.394Z,11.88
2023-04-06T08:01:57.726Z,10.45
2023-04-06T08:03:30.203Z,11.05
2023-04-06T08:05:02.546Z,11.75
2023-04-06T08:06:35.676Z,10.43
2023-04-06T08:08:10.791Z,8.43
2023-04-06T08:09:42.877Z,8.65
2023-04-06T08:11:15.056Z,9.30
2023-04-06T08:12:47.165Z,9.82
2023-04-06T08:14:19.790Z,9.20
2023-04-06T08:15:52.033Z,9.32
2023-04-06T08:17:24.430Z,10.40
2023-04-06T08:18:56.611Z,9.38
2023-04-06T08:20:28.756Z,15.65
2023-04-06T08:22:00.935Z,9.80
2023-04-06T08:23:33.363Z,11.82
2023-04-06T08:25:06.177Z,10.00
2023-04-06T08:26:38.275Z,8.82
2023-04-06T08:29:43.269Z,10.32
2023-04-06T08:31:15.525Z,9.10
2023-04-06T08:32:47.771Z,10.15
2023-04-06T08:34:19.967Z,9.13
2023-04-06T08:35:52.176Z,9.50
2023-04-06T08:37:24.825Z,12.43
2023-04-06T08:38:56.951Z,9.00
2023-04-06T08:40:29.383Z,9.65
2023-04-06T08:42:04.415Z,10.05
2023-04-06T08:43:56.239Z,10.55
2023-04-06T08:45:28.499Z,10.45
2023-04-06T08:47:01.194Z,9.40
2023-04-06T08:48:34.508Z,9.68
2023-04-06T08:50:07.335Z,10.18
2023-04-06T08:51:40.069Z,9.48
2023-04-06T08:53:12.809Z,10.80
2023-04-06T08:54:45.060Z,10.43
2023-04-06T08:56:17.291Z,11.88
2023-04-06T08:57:49.848Z,11.98
2023-04-06T08:59:22.258Z,11.53
2023-04-06T09:00:54.497Z,9.25
2023-04-06T09:02:27.215Z,10.38
2023-04-06T09:04:01.999Z,10.15
2023-04-06T09:05:34.301Z,9.65
2023-04-06T09:07:09.560Z,11.18
2023-04-06T09:08:42.791Z,10.48
2023-04-06T09:10:14.935Z,11.00
2023-04-06T09:11:49.011Z,10.48
2023-04-06T09:13:26.763Z,11.10
2023-04-06T09:15:00.144Z,10.25
2023-04-06T09:18:12.480Z,10.10
2023-04-06T09:19:48.604Z,10.60
2023-04-06T09:21:23.543Z,11.02
2023-04-06T09:22:57.609Z,9.93
2023-04-06T09:24:29.831Z,9.45
2023-04-06T09:26:14.563Z,9.10
2023-04-06T09:27:46.686Z,9.95
2023-04-06T09:29:28.195Z,8.98
2023-04-06T09:31:00.405Z,9.63
2023-04-06T09:32:32.834Z,8.40
2023-04-06T09:34:05.008Z,8.40
2023-04-06T09:35:37.198Z,8.90
2023-04-06T09:37:20.250Z,8.00
2023-04-06T09:38:57.302Z,8.53
2023-04-06T09:40:30.555Z,8.88
2023-04-06T09:42:04.068Z,8.80
2023-04-06T09:45:08.755Z,7.75
2023-04-06T09:46:58.022Z,8.95
2023-04-06T09:48:32.871Z,9.60
2023-04-06T09:50:05.278Z,7.05
2023-04-06T09:51:48.988Z,8.43
2023-04-06T09:53:21.881Z,7.90
2023-04-06T09:54:57.421Z,8.90
2023-04-06T09:56:30.587Z,7.95
2023-04-06T09:58:08.046Z,7.20
2023-04-06T09:59:52.640Z,8.20
2023-04-06T10:01:28.566Z,8.05
2023-04-06T10:03:27.822Z,8.02
2023-04-06T10:05:13.116Z,9.50
2023-04-06T10:06:45.730Z,8.50
2023-04-06T10:08:18.016Z,8.40
2023-04-06T10:09:51.067Z,8.57
2023-04-06T10:11:23.660Z,8.65
2023-04-06T10:12:57.167Z,8.05
2023-04-06T10:14:29.369Z,12.80
2023-04-06T10:16:02.938Z,10.48
2023-04-06T10:19:13.657Z,8.48
2023-04-06T10:20:50.122Z,8.65
2023-04-06T10:22:39.370Z,7.15
2023-04-06T10:24:12.315Z,8.60
2023-04-06T10:26:03.304Z,9.40
2023-04-06T10:27:35.530Z,9.35
2023-04-06T10:29:08.084Z,8.68
2023-04-06T10:30:44.820Z,8.43
2023-04-06T10:32:17.180Z,9.40
2023-04-06T10:34:00.006Z,7.28
2023-04-06T10:35:40.470Z,8.43
2023-04-06T10:37:16.569Z,8.40
2023-04-06T10:38:48.829Z,11.43
2023-04-06T10:40:26.979Z,7.95
2023-04-06T10:42:08.037Z,9.18
2023-04-06T10:43:42.663Z,7.57
2023-04-06T10:45:28.074Z,8.10
2023-04-06T10:47:04.723Z,9.98
2023-04-06T10:48:42.160Z,8.35
2023-04-06T10:50:17.434Z,8.63
2023-04-06T10:51:57.365Z,8.43
2023-04-06T10:53:29.645Z,9.25
2023-04-06T10:55:02.106Z,7.80
2023-04-06T10:56:35.931Z,8.88
2023-04-06T10:58:09.150Z,9.15
2023-04-06T10:59:45.572Z,9.43
2023-04-06T11:01:19.050Z,8.35
2023-04-06T11:02:51.354Z,10.18
2023-04-06T11:04:24.852Z,8.95
2023-04-06T11:05:57.078Z,10.23
2023-04-06T11:07:31.477Z,8.13
2023-04-06T11:09:03.710Z,7.25
2023-04-06T11:10:35.882Z,10.10
2023-04-06T11:12:08.041Z,9.90
2023-04-06T11:13:50.202Z,8.98
2023-04-06T11:15:22.487Z,9.15
2023-04-06T11:16:54.763Z,9.85
2023-04-06T11:18:27.049Z,9.73
2023-04-06T11:19:59.767Z,7.47
2023-04-06T11:21:48.909Z,6.97
2023-04-06T11:23:25.858Z,8.13
2023-04-06T11:27:02.346Z,11.90
2023-04-06T11:28:34.516Z,9.82
2023-04-06T11:30:07.490Z,10.13
2023-04-06T11:31:44.540Z,9.82
2023-04-06T11:33:26.530Z,9.00
2023-04-06T11:34:59.584Z,9.07
2023-04-06T11:36:31.801Z,9.35
2023-04-06T11:38:07.333Z,10.23
2023-04-06T11:39:51.960Z,15.18
2023-04-06T11:41:27.318Z,11.23
2023-04-06T11:42:59.528Z,8.75
2023-04-06T11:44:50.947Z,9.05
2023-04-06T11:46:23.161Z,8.95
2023-04-06T11:48:02.776Z,8.07
2023-04-06T11:49:38.701Z,8.45
2023-04-06T11:52:43.885Z,8.45
2023-04-06T11:55:48.674Z,7.25
2023-04-06T11:57:22.660Z,8.27
2023-04-06T11:59:00.028Z,9.07
2023-04-06T12:00:35.982Z,12.18
2023-04-06T12:02:08.547Z,10.57
2023-04-06T12:03:40.809Z,9.10
2023-04-06T12:05:13.330Z,9.18
2023-04-06T12:06:45.866Z,11.53
2023-04-06T12:08:18.067Z,9.50
2023-04-06T12:09:50.252Z,9.98
2023-04-06T12:11:23.206Z,11.35
2023-04-06T12:12:55.455Z,18.80
2023-04-06T12:14:27.968Z,11.63
2023-04-06T12:16:00.305Z,15.27
2023-04-06T12:17:32.494Z,9.50
2023-04-06T12:19:05.128Z,21.63
2023-04-06T12:20:37.425Z,17.50
2023-04-06T12:22:09.585Z,9.38
2023-04-06T12:23:41.760Z,10.35
2023-04-06T12:25:14.043Z,10.75
2023-04-06T12:26:47.064Z,13.98
2023-04-06T12:28:27.225Z,10.00
2023-04-06T12:29:59.376Z,10.52
2023-04-06T12:31:31.723Z,10.48
2023-04-06T12:33:04.066Z,15.10
2023-04-06T12:34:36.301Z,12.88
2023-04-06T12:36:14.390Z,9.82
2023-04-06T12:37:46.697Z,9.43
2023-04-06T12:39:21.734Z,10.77
2023-04-06T12:40:54.112Z,10.45
2023-04-06T12:42:26.194Z,10.27
2023-04-06T12:43:58.495Z,9.95
2023-04-06T12:45:32.304Z,13.40
2023-04-06T12:47:04.541Z,10.93
2023-04-06T12:48:37.882Z,10.68
2023-04-06T12:50:10.468Z,12.13
2023-04-06T12:51:43.244Z,10.27
2023-04-06T12:53:15.470Z,10.70
2023-04-06T12:54:50.116Z,11.68
2023-04-06T12:56:23.879Z,10.18
2023-04-06T12:57:56.542Z,12.07
2023-04-06T12:59:29.549Z,11.23
2023-04-06T13:01:04.425Z,10.88
2023-04-06T13:02:36.657Z,8.57
2023-04-06T13:04:08.782Z,11.02
2023-04-06T13:05:50.822Z,12.07
2023-04-06T13:07:23.630Z,11.60
2023-04-06T13:08:56.450Z,12.23
2023-04-06T13:10:28.481Z,12.00
2023-04-06T13:12:00.893Z,16.30
2023-04-06T13:13:33.554Z,9.27
2023-04-06T13:15:06.321Z,15.02
2023-04-06T13:16:39.022Z,10.63
2023-04-06T13:18:11.764Z,12.20
2023-04-06T13:19:43.995Z,13.60
2023-04-06T13:21:17.593Z,16.23
2023-04-06T13:22:50.106Z,11.52
2023-04-06T13:24:23.181Z,10.73
2023-04-06T13:27:28.684Z,11.07
2023-04-06T13:29:02.208Z,9.80
2023-04-06T13:32:06.948Z,9.75
2023-04-06T13:33:39.860Z,9.80
2023-04-06T13:35:13.024Z,10.05
2023-04-06T13:36:45.231Z,9.93
2023-04-06T13:38:17.756Z,9.82
2023-04-06T13:39:50.033Z,10.32
2023-04-06T13:41:23.487Z,11.02
2023-04-06T13:44:27.781Z,10.10
2023-04-06T13:46:02.157Z,11.57
2023-04-06T13:47:34.705Z,10.85
2023-04-06T13:49:06.956Z,12.43
2023-04-06T13:50:39.158Z,11.15
2023-04-06T13:52:11.763Z,12.07
2023-04-06T13:53:43.974Z,9.90
2023-04-06T13:55:16.402Z,10.85
2023-04-06T13:56:48.525Z,11.63
2023-04-06T13:58:20.779Z,10.63
2023-04-06T13:59:52.877Z,11.48
2023-04-06T14:01:25.049Z,11.82
2023-04-06T14:02:57.378Z,13.30
2023-04-06T14:04:30.211Z,12.07
2023-04-06T14:06:09.330Z,11.98
2023-04-06T14:07:41.676Z,11.80
2023-04-06T14:09:14.186Z,11.32
2023-04-06T14:10:46.510Z,13.80
2023-04-06T14:12:18.602Z,11.25
2023-04-06T14:13:50.733Z,11.63
2023-04-06T14:15:23.974Z,11.90
2023-04-06T14:16:56.222Z,11.88
2023-04-06T14:18:32.228Z,14.52
2023-04-06T14:20:08.325Z,11.73
2023-04-06T14:21:41.191Z,11.32
2023-04-06T14:23:13.321Z,12.43
2023-04-06T14:24:45.554Z,13.15
2023-04-06T14:26:18.006Z,13.13
2023-04-06T14:27:50.148Z,11.68
2023-04-06T14:29:22.233Z,12.70
2023-04-06T14:30:54.366Z,11.50
2023-04-06T14:32:27.129Z,12.18
2023-04-06T14:33:59.464Z,11.52
2023-04-06T14:35:34.594Z,13.02
2023-04-06T14:37:06.837Z,12.10
2023-04-06T14:38:39.776Z,12.90
2023-04-06T14:40:12.283Z,12.20
2023-04-06T14:41:44.649Z,13.27
2023-04-06T14:43:16.972Z,14.85
2023-04-06T14:44:50.133Z,13.40
2023-04-06T14:46:22.435Z,12.57
2023-04-06T14:47:54.660Z,14.18
2023-04-06T14:49:26.771Z,14.95
2023-04-06T14:50:59.150Z,14.48
2023-04-06T14:52:33.600Z,13.82
2023-04-06T14:54:10.136Z,12.50
2023-04-06T14:55:42.978Z,13.13
2023-04-06T14:57:15.212Z,11.85
2023-04-06T14:58:47.345Z,12.10
2023-04-06T15:00:19.884Z,12.77
2023-04-06T15:01:52.816Z,14.00
2023-04-06T15:03:28.884Z,12.38
2023-04-06T15:05:01.207Z,11.48
2023-04-06T15:06:33.557Z,15.88
2023-04-06T15:08:06.082Z,13.68
2023-04-06T15:09:38.492Z,12.00
2023-04-06T15:11:11.210Z,10.35
2023-04-06T15:12:43.358Z,12.23
2023-04-06T15:14:15.913Z,11.32
2023-04-06T15:15:48.096Z,13.17
2023-04-06T15:17:20.314Z,12.00
2023-04-06T15:18:52.446Z,13.02
2023-04-06T15:20:24.718Z,14.75
2023-04-06T15:21:57.799Z,18.20
2023-04-06T15:23:32.954Z,13.15
2023-04-06T15:25:05.873Z,16.05
2023-04-06T15:26:41.464Z,17.10
2023-04-06T15:28:13.526Z,13.63
2023-04-06T15:29:45.990Z,15.13
2023-04-06T15:32:57.320Z,13.85
2023-04-06T15:34:32.383Z,14.85
2023-04-06T15:36:09.895Z,14.48
2023-04-06T15:37:42.293Z,14.23
2023-04-06T15:39:14.970Z,13.60
2023-04-06T15:40:48.533Z,14.77
2023-04-06T15:43:52.979Z,12.90
2023-04-06T15:45:25.229Z,13.95
2023-04-06T15:46:57.348Z,12.32
2023-04-06T15:48:32.401Z,11.77
2023-04-06T15:50:05.255Z,11.52
2023-04-06T15:51:37.760Z,12.63
2023-04-06T15:53:09.919Z,12.95
2023-04-06T15:54:42.132Z,13.50
2023-04-06T15:56:14.961Z,11.73
2023-04-06T15:57:47.116Z,12.60
2023-04-06T15:59:19.265Z,12.23
2023-04-06T16:00:51.408Z,13.73
2023-04-06T16:02:24.286Z,13.75
2023-04-06T16:03:56.733Z,13.18
2023-04-06T16:05:34.442Z,12.70
2023-04-06T16:07:08.469Z,13.48
2023-04-06T16:08:41.359Z,13.73
2023-04-06T16:10:13.492Z,14.25
2023-04-06T16:11:45.841Z,15.65
2023-04-06T16:13:17.974Z,13.82
2023-04-06T16:14:50.210Z,16.00
2023-04-06T16:16:22.361Z,12.70
2023-04-06T16:17:54.672Z,14.70
2023-04-06T16:19:26.876Z,13.43
2023-04-06T16:20:59.356Z,16.50
2023-04-06T16:22:34.647Z,13.40
2023-04-06T16:24:07.442Z,13.65
2023-04-06T16:25:39.830Z,13.20
2023-04-06T16:27:25.401Z,12.98
2023-04-06T16:28:59.071Z,11.93
2023-04-06T16:30:31.788Z,15.10
2023-04-06T16:32:04.987Z,13.52
2023-04-06T16:33:37.280Z,13.43
2023-04-06T16:35:09.747Z,13.70
2023-04-06T16:36:42.492Z,13.85
2023-04-06T16:38:15.508Z,16.23
2023-04-06T16:39:47.763Z,13.02
2023-04-06T16:41:20.536Z,12.98
2023-04-06T16:42:52.923Z,13.18
2023-04-06T16:44:25.099Z,14.90
2023-04-06T16:45:57.290Z,18.30
2023-04-06T16:47:29.436Z,15.75
2023-04-06T16:49:02.530Z,14.40
2023-04-06T16:50:36.748Z,15.77
2023-04-06T16:52:09.032Z,16.73
2023-04-06T16:53:41.146Z,20.45
2023-04-06T16:55:13.338Z,20.33
2023-04-06T16:56:45.570Z,16.13
2023-04-06T16:58:17.667Z,16.75
2023-04-06T16:59:49.772Z,15.13
2023-04-06T17:01:28.483Z,16.50
2023-04-06T17:03:01.225Z,17.25
2023-04-06T17:04:33.607Z,16.50
2023-04-06T17:06:05.900Z,17.33
2023-04-06T17:07:37.976Z,17.85
2023-04-06T17:09:10.067Z,20.10
2023-04-06T17:12:19.026Z,15.23
2023-04-06T17:13:54.262Z,15.82
2023-04-06T17:15:28.660Z,13.30
2023-04-06T17:17:01.075Z,18.08
2023-04-06T17:18:33.314Z,16.25
2023-04-06T17:20:06.696Z,16.20
2023-04-06T17:21:40.812Z,14.07
2023-04-06T17:23:13.619Z,14.65
2023-04-06T17:24:45.748Z,13.45
2023-04-06T17:26:17.857Z,14.75
2023-04-06T17:27:50.056Z,17.77
2023-04-06T17:29:22.158Z,14.50
2023-04-06T17:30:54.396Z,16.77
2023-04-06T17:32:28.226Z,15.52
2023-04-06T17:34:00.555Z,14.35
2023-04-06T17:35:32.694Z,14.45
2023-04-06T17:37:04.824Z,12.70
2023-04-06T17:38:37.020Z,13.93
2023-04-06T17:40:09.632Z,18.50
2023-04-06T17:41:41.790Z,15.02
2023-04-06T17:43:13.910Z,21.63
2023-04-06T17:44:51.509Z,16.60
2023-04-06T17:46:25.192Z,21.42
2023-04-06T17:47:57.492Z,13.60
2023-04-06T17:49:29.815Z,15.27
2023-04-06T17:51:02.130Z,12.98
2023-04-06T17:52:34.234Z,19.67
2023-04-06T17:54:06.533Z,14.75
2023-04-06T17:55:38.709Z,18.67
2023-04-06T17:57:10.975Z,21.63
2023-04-06T17:58:43.130Z,28.52
2023-04-06T18:00:24.517Z,14.88
2023-04-06T18:01:56.932Z,18.85
2023-04-06T18:03:29.175Z,14.50
2023-04-06T18:05:01.385Z,16.00
2023-04-06T18:06:33.795Z,18.23
2023-04-06T18:08:05.982Z,18.15
2023-04-06T18:09:39.634Z,17.92
2023-04-06T18:11:18.498Z,15.30
2023-04-06T18:12:51.002Z,15.57
2023-04-06T18:14:23.169Z,22.00
2023-04-06T18:15:55.352Z,16.65
2023-04-06T18:17:28.411Z,17.35
2023-04-06T18:19:04.999Z,15.43
2023-04-06T18:20:41.566Z,18.80
2023-04-06T18:22:13.785Z,17.48
2023-04-06T18:23:46.542Z,17.20
2023-04-06T18:25:19.284Z,16.08
2023-04-06T18:26:51.529Z,15.05
2023-04-06T18:28:25.862Z,17.98
2023-04-06T18:30:00.210Z,16.17
2023-04-06T18:31:32.492Z,15.93
2023-04-06T18:33:04.876Z,13.63
2023-04-06T18:34:37.132Z,14.88
2023-04-06T18:36:10.193Z,21.65
2023-04-06T18:37:42.528Z,18.40
2023-04-06T18:39:15.230Z,15.25
2023-04-06T18:40:47.458Z,18.33
2023-04-06T18:42:19.941Z,14.95
2023-04-06T18:43:52.194Z,16.25
2023-04-06T18:45:24.447Z,14.88
2023-04-06T18:46:56.660Z,15.48
2023-04-06T18:48:28.884Z,16.08
2023-04-06T18:50:00.928Z,15.48
2023-04-06T18:51:33.174Z,13.55
2023-04-06T18:53:05.382Z,15.13
2023-04-06T18:54:37.563Z,15.30
2023-04-06T18:56:16.570Z,15.43
2023-04-06T18:57:49.064Z,15.30
2023-04-06T18:59:21.201Z,16.67
2023-04-06T19:00:59.544Z,15.02
2023-04-06T19:02:31.794Z,15.30
2023-04-06T19:04:04.236Z,14.10
2023-04-06T19:05:36.591Z,16.35
2023-04-06T19:07:08.732Z,14.75
2023-04-06T19:08:41.068Z,19.95
2023-04-06T19:10:14.273Z,16.15
2023-04-06T19:11:46.579Z,16.83
2023-04-06T19:13:18.668Z,16.90
2023-04-06T19:14:53.692Z,15.77
2023-04-06T19:16:27.754Z,15.57
2023-04-06T19:18:00.159Z,16.70
2023-04-06T19:19:32.334Z,14.55
2023-04-06T19:21:05.314Z,15.52
2023-04-06T19:22:37.824Z,13.50
2023-04-06T19:24:12.530Z,14.02
2023-04-06T19:25:44.869Z,14.93
2023-04-06T19:27:17.077Z,14.68
2023-04-06T19:28:49.253Z,16.50
2023-04-06T19:30:21.687Z,14.85
2023-04-06T19:31:53.895Z,16.48
2023-04-06T19:33:26.212Z,13.93
2023-04-06T19:35:00.020Z,15.65
2023-04-06T19:36:32.877Z,15.05
2023-04-06T19:38:05.081Z,16.85
2023-04-06T19:39:37.714Z,14.38
2023-04-06T19:41:10.008Z,17.15
2023-04-06T19:42:42.167Z,14.60
2023-04-06T19:44:14.437Z,14.57
2023-04-06T19:45:49.773Z,15.32
2023-04-06T19:47:22.062Z,16.63
2023-04-06T19:48:54.322Z,15.95
2023-04-06T19:50:26.653Z,14.90
2023-04-06T19:53:32.355Z,15.48
2023-04-06T19:55:04.869Z,13.63
2023-04-06T19:56:37.076Z,14.85
2023-04-06T19:58:09.343Z,12.95
2023-04-06T19:59:41.997Z,13.55
2023-04-06T20:01:14.234Z,14.43
2023-04-06T20:02:46.534Z,13.60
2023-04-06T20:04:18.901Z,15.18
2023-04-06T20:05:51.165Z,14.80
2023-04-06T20:07:23.252Z,15.85
2023-04-06T20:08:55.368Z,13.27
2023-04-06T20:10:30.026Z,13.82
2023-04-06T20:12:04.289Z,13.60
2023-04-06T20:13:37.471Z,13.68
2023-04-06T20:15:10.977Z,16.67
2023-04-06T20:18:15.132Z,16.10
2023-04-06T20:19:47.363Z,14.48
2023-04-06T20:21:19.540Z,16.30
2023-04-06T20:22:51.855Z,13.63
2023-04-06T20:24:24.304Z,15.50
2023-04-06T20:25:58.784Z,12.27
2023-04-06T20:27:31.023Z,15.15
2023-04-06T20:29:03.189Z,15.38
2023-04-06T20:30:35.926Z,15.13
2023-04-06T20:32:08.206Z,13.52
2023-04-06T20:33:41.260Z,13.65
2023-04-06T20:35:13.426Z,14.18
2023-04-06T20:36:45.724Z,12.20
2023-04-06T20:38:24.356Z,12.70
2023-04-06T20:40:05.538Z,15.95
2023-04-06T20:41:37.823Z,12.27